KMLU/MLU METAR and TAF weather

Enter ICAO airport designator
Station Type Date Time Source
KMLU METAR 2019/08/23 17:40 UTC NOAA

KMLU 231740Z 09005KT 10SM TS CLR 33/24 A2997 RMK AO2 LTG DSNT SE TSB34 T03280239


Station Type Date Time Source
KMLU Decoded METAR 2019/08/23 17:40 UTC NOAA

Station name not available
Aug 23, 2019 - 01:40 PM EDT / 2019.08.23 1740 UTC
Wind: from the E (090 degrees) at 6 MPH (5 KT):0
Visibility: 10 mile(s):0
Sky conditions: clear
Weather: thunder; Lightning observed
Temperature: 91.0 F (32.8 C)
Heat index: 101.5 F (38.6 C):1
Dew Point: 75.0 F (23.9 C)
Relative Humidity: 59%
Pressure (altimeter): 29.97 in. Hg (1014 hPa)
ob: KMLU 231740Z 09005KT 10SM TS CLR 33/24 A2997 RMK AO2 LTG DSNT SE TSB34 T03280239
cycle: 17

Station Type Date Time Source
KMLU TAF 2019/08/23 18:45 UTC NOAA

TAF KMLU 231744Z 2318/2418 17005KT P6SM VCTS SCT040CB BKN100 BKN250
FM240100 16003KT P6SM FEW050 SCT250
FM240900 VRB03KT 5SM BR BKN050
FM241200 VRB03KT P6SM OVC015
FM241600 14004KT P6SM BKN025 BKN250

Example: see airport list